createdAt,value
2022-10-11T00:00:22.277Z,3.70
2022-10-11T00:02:49.917Z,3.69
2022-10-11T00:05:17.061Z,3.69
2022-10-11T00:07:44.081Z,3.67
2022-10-11T00:10:10.779Z,3.65
2022-10-11T00:12:37.572Z,3.64
2022-10-11T00:15:05.406Z,3.62
2022-10-11T00:17:32.372Z,3.59
2022-10-11T00:19:59.245Z,3.57
2022-10-11T00:22:25.924Z,3.56
2022-10-11T00:24:53.033Z,3.54
2022-10-11T00:27:19.649Z,3.53
2022-10-11T00:29:46.481Z,3.50
2022-10-11T00:32:13.752Z,3.47
2022-10-11T00:34:40.508Z,3.44
2022-10-11T00:37:08.964Z,3.41
2022-10-11T00:39:36.254Z,3.39
2022-10-11T00:42:03.109Z,3.37
2022-10-11T00:44:31.849Z,3.36
2022-10-11T00:47:10.669Z,3.36
2022-10-11T00:49:39.903Z,3.34
2022-10-11T00:52:29.209Z,3.32
2022-10-11T00:54:56.021Z,3.30
2022-10-11T00:57:23.244Z,3.30
2022-10-11T00:59:51.096Z,3.29
2022-10-11T01:02:17.956Z,3.29
2022-10-11T01:04:44.851Z,3.26
2022-10-11T01:07:12.901Z,3.24
2022-10-11T01:09:39.621Z,3.20
2022-10-11T01:12:11.831Z,3.18
2022-10-11T01:15:10.121Z,3.16
2022-10-11T01:17:52.250Z,3.13
2022-10-11T01:20:24.292Z,3.10
2022-10-11T01:23:32.684Z,3.07
2022-10-11T01:26:27.419Z,3.03
2022-10-11T01:28:57.182Z,3.01
2022-10-11T01:31:28.778Z,2.97
2022-10-11T01:33:59.169Z,2.95
2022-10-11T01:36:34.360Z,2.95
2022-10-11T01:39:08.256Z,2.93
2022-10-11T01:41:38.221Z,2.94
2022-10-11T01:44:05.070Z,2.94
2022-10-11T01:46:31.848Z,2.92
2022-10-11T01:48:59.844Z,2.91
2022-10-11T01:51:47.108Z,2.90
2022-10-11T01:55:04.018Z,2.89
2022-10-11T01:57:35.382Z,2.86
2022-10-11T02:00:10.054Z,2.84
2022-10-11T02:02:54.111Z,2.82
2022-10-11T02:05:43.058Z,2.82
2022-10-11T02:08:25.435Z,2.77
2022-10-11T02:10:54.323Z,2.73
2022-10-11T02:13:27.829Z,2.70
2022-10-11T02:15:54.639Z,2.68
2022-10-11T02:18:23.728Z,2.66
2022-10-11T02:20:50.441Z,2.64
2022-10-11T02:23:51.269Z,2.63
2022-10-11T02:26:18.104Z,2.63
2022-10-11T02:28:44.874Z,2.61
2022-10-11T02:31:11.679Z,2.61
2022-10-11T02:33:46.070Z,2.60
2022-10-11T02:36:16.334Z,2.58
2022-10-11T02:38:49.331Z,2.55
2022-10-11T02:41:23.188Z,2.52
2022-10-11T02:43:57.363Z,2.53
2022-10-11T02:46:24.499Z,2.53
2022-10-11T02:48:51.319Z,2.55
2022-10-11T02:51:18.190Z,2.53
2022-10-11T02:53:45.129Z,2.52
2022-10-11T02:56:11.892Z,2.51
2022-10-11T02:58:38.667Z,2.50
2022-10-11T03:01:06.600Z,2.48
2022-10-11T03:03:33.502Z,2.46
2022-10-11T03:06:01.104Z,2.43
2022-10-11T03:08:28.316Z,2.41
2022-10-11T03:10:55.034Z,2.39
2022-10-11T03:13:21.859Z,2.37
2022-10-11T03:16:02.315Z,2.35
2022-10-11T03:18:30.653Z,2.34
2022-10-11T03:20:57.327Z,2.31
2022-10-11T03:23:24.000Z,2.29
2022-10-11T03:25:52.054Z,2.28
2022-10-11T03:28:19.343Z,2.29
2022-10-11T03:30:49.946Z,2.30
2022-10-11T03:33:17.248Z,2.29
2022-10-11T03:35:44.975Z,2.29
2022-10-11T03:38:13.183Z,2.29
2022-10-11T03:40:41.177Z,2.30
2022-10-11T03:43:07.862Z,2.28
2022-10-11T03:45:34.780Z,2.27
2022-10-11T03:48:01.707Z,2.25
2022-10-11T03:50:28.665Z,2.22
2022-10-11T03:52:55.324Z,2.22
2022-10-11T03:55:21.998Z,2.21
2022-10-11T03:57:48.795Z,2.19
2022-10-11T04:00:15.641Z,2.15
2022-10-11T04:02:42.378Z,2.14
2022-10-11T04:05:09.345Z,2.12
2022-10-11T04:07:36.090Z,2.12
2022-10-11T04:10:02.908Z,2.13
2022-10-11T04:12:29.793Z,2.13
2022-10-11T04:14:56.495Z,2.14
2022-10-11T04:17:23.231Z,2.15
2022-10-11T04:19:50.060Z,2.16
2022-10-11T04:22:16.961Z,2.17
2022-10-11T04:24:43.621Z,2.18
2022-10-11T04:27:10.519Z,2.22
2022-10-11T04:29:37.514Z,2.30
2022-10-11T04:32:04.780Z,2.62
2022-10-11T04:34:31.528Z,3.13
2022-10-11T04:36:58.220Z,3.44
2022-10-11T04:39:25.059Z,3.59
2022-10-11T04:41:51.995Z,3.97
2022-10-11T04:44:18.816Z,4.64
2022-10-11T04:46:45.553Z,5.36
2022-10-11T04:49:12.291Z,5.99
2022-10-11T04:51:39.146Z,6.61
2022-10-11T04:54:06.095Z,7.33
2022-10-11T04:56:33.148Z,8.06
2022-10-11T04:58:59.889Z,8.76
2022-10-11T05:01:26.663Z,9.41
2022-10-11T05:03:53.848Z,10.01
2022-10-11T05:06:20.521Z,10.58
2022-10-11T05:08:47.377Z,10.96
2022-10-11T05:11:15.987Z,11.22
2022-10-11T05:13:43.339Z,11.39
2022-10-11T05:16:11.438Z,11.52
2022-10-11T05:18:40.398Z,11.57
2022-10-11T05:21:09.697Z,11.59
2022-10-11T05:23:37.366Z,11.37
2022-10-11T05:26:04.748Z,11.04
2022-10-11T05:29:04.586Z,10.63
2022-10-11T05:31:31.507Z,10.13
2022-10-11T05:33:58.219Z,9.76
2022-10-11T05:36:25.913Z,9.51
2022-10-11T05:38:53.333Z,9.31
2022-10-11T05:41:20.569Z,9.09
2022-10-11T05:43:47.391Z,8.97
2022-10-11T05:46:14.382Z,8.87
2022-10-11T05:48:41.200Z,8.86
2022-10-11T05:51:09.878Z,8.86
2022-10-11T05:53:37.738Z,8.85
2022-10-11T05:56:05.245Z,8.80
2022-10-11T05:58:32.210Z,8.73
2022-10-11T06:00:59.025Z,8.59
2022-10-11T06:03:26.077Z,8.45
2022-10-11T06:05:56.800Z,8.26
2022-10-11T06:12:06.668Z,7.92
2022-10-11T06:14:33.671Z,8.06
2022-10-11T06:17:00.412Z,8.31
2022-10-11T06:19:27.356Z,8.47
2022-10-11T06:21:54.219Z,8.50
2022-10-11T06:24:20.996Z,8.45
2022-10-11T06:26:49.075Z,8.43
2022-10-11T06:29:15.885Z,8.46
2022-10-11T06:31:42.720Z,8.52
2022-10-11T06:34:09.627Z,8.65
2022-10-11T06:36:36.512Z,8.80
2022-10-11T06:39:03.432Z,8.92
2022-10-11T06:41:30.263Z,8.96
2022-10-11T06:43:57.612Z,9.00
2022-10-11T06:46:25.880Z,9.10
2022-10-11T06:48:52.628Z,9.25
2022-10-11T06:51:21.096Z,9.47
2022-10-11T06:53:55.836Z,9.68
2022-10-11T06:56:23.132Z,9.90
2022-10-11T06:58:51.354Z,10.16
2022-10-11T07:01:20.108Z,10.34
2022-10-11T07:03:47.508Z,10.40
2022-10-11T07:06:17.107Z,10.53
2022-10-11T07:08:43.992Z,10.71
2022-10-11T07:11:17.934Z,10.89
2022-10-11T07:13:49.259Z,11.06
2022-10-11T07:16:15.877Z,11.14
2022-10-11T07:18:42.572Z,11.19
2022-10-11T07:21:11.395Z,11.22
2022-10-11T07:23:38.361Z,11.26
2022-10-11T07:26:05.927Z,11.33
2022-10-11T07:28:33.358Z,11.39
2022-10-11T07:31:04.267Z,11.48
2022-10-11T07:33:30.953Z,11.62
2022-10-11T07:35:58.001Z,11.79
2022-10-11T07:38:25.067Z,11.97
2022-10-11T07:40:51.718Z,12.14
2022-10-11T07:43:18.388Z,12.30
2022-10-11T07:45:47.801Z,12.45
2022-10-11T07:48:15.054Z,12.61
2022-10-11T07:50:41.795Z,12.76
2022-10-11T07:53:09.116Z,12.91
2022-10-11T07:55:40.241Z,13.08
2022-10-11T07:58:08.286Z,13.28
2022-10-11T08:00:35.027Z,13.48
2022-10-11T08:03:05.617Z,13.73
2022-10-11T08:05:32.629Z,13.96
2022-10-11T08:07:59.380Z,14.12
2022-10-11T08:10:26.710Z,14.23
2022-10-11T08:12:58.601Z,14.35
2022-10-11T08:15:29.263Z,14.54
2022-10-11T08:17:55.909Z,14.70
2022-10-11T08:20:22.669Z,14.86
2022-10-11T08:22:49.362Z,14.94
2022-10-11T08:25:16.292Z,15.04
2022-10-11T08:27:43.264Z,15.18
2022-10-11T08:30:10.681Z,15.24
2022-10-11T08:32:37.405Z,15.24
2022-10-11T08:35:04.420Z,15.29
2022-10-11T08:38:50.589Z,15.34
2022-10-11T08:41:46.263Z,15.39
2022-10-11T08:44:37.338Z,15.54
2022-10-11T08:47:33.288Z,15.69
2022-10-11T08:50:45.101Z,15.83
2022-10-11T08:53:36.600Z,15.89
2022-10-11T08:56:03.749Z,15.97
2022-10-11T08:58:55.739Z,16.03
2022-10-11T09:01:24.158Z,16.06
2022-10-11T09:03:51.407Z,16.06
2022-10-11T09:06:24.828Z,16.16
2022-10-11T09:09:09.769Z,16.29
2022-10-11T09:11:58.985Z,16.36
2022-10-11T09:14:48.774Z,16.42
2022-10-11T09:17:49.872Z,16.49
2022-10-11T09:20:31.793Z,16.45
2022-10-11T09:23:19.710Z,16.38
2022-10-11T09:25:52.129Z,16.44
2022-10-11T09:28:50.663Z,16.44
2022-10-11T09:31:17.476Z,16.44
2022-10-11T09:33:48.928Z,16.44
2022-10-11T09:36:20.259Z,16.44
2022-10-11T09:39:26.014Z,16.44
2022-10-11T09:42:07.029Z,16.45
2022-10-11T09:44:51.896Z,16.44
2022-10-11T09:47:26.352Z,16.48
2022-10-11T09:49:56.925Z,16.42
2022-10-11T09:52:23.916Z,16.26
2022-10-11T09:54:59.124Z,16.08
2022-10-11T09:57:33.214Z,16.03
2022-10-11T10:00:18.663Z,16.03
2022-10-11T10:02:58.733Z,16.01
2022-10-11T10:06:29.860Z,15.94
2022-10-11T10:09:24.158Z,15.90
2022-10-11T10:11:50.870Z,15.89
2022-10-11T10:14:28.355Z,15.85
2022-10-11T10:17:00.781Z,15.83
2022-10-11T10:19:27.457Z,15.78
2022-10-11T10:21:54.207Z,15.72
2022-10-11T10:24:27.853Z,15.61
2022-10-11T10:27:15.004Z,15.55
2022-10-11T10:29:41.632Z,15.46
2022-10-11T10:32:22.375Z,15.44
2022-10-11T10:35:13.807Z,15.42
2022-10-11T10:37:59.321Z,15.44
2022-10-11T10:40:58.154Z,15.46
2022-10-11T10:43:30.059Z,15.46
2022-10-11T10:46:23.936Z,15.47
2022-10-11T10:52:03.269Z,15.49
2022-10-11T10:54:48.859Z,15.48
2022-10-11T10:57:32.207Z,15.47
2022-10-11T11:00:19.235Z,15.43
2022-10-11T11:03:23.552Z,15.37
2022-10-11T11:06:26.547Z,15.34
2022-10-11T11:09:06.769Z,15.36
2022-10-11T11:16:48.922Z,15.33
2022-10-11T11:19:31.445Z,15.27
2022-10-11T11:22:07.501Z,15.23
2022-10-11T11:24:47.250Z,15.25
2022-10-11T11:27:36.428Z,15.29
2022-10-11T11:30:17.202Z,15.31
2022-10-11T11:32:45.868Z,15.32
2022-10-11T11:35:25.856Z,15.29
2022-10-11T11:38:01.252Z,15.29
2022-10-11T11:40:38.789Z,15.30
2022-10-11T11:43:21.677Z,15.27
2022-10-11T11:46:00.645Z,15.23
2022-10-11T11:48:27.562Z,15.19
2022-10-11T11:51:08.022Z,15.19
2022-10-11T11:53:46.192Z,15.22
2022-10-11T11:56:26.371Z,15.29
2022-10-11T11:59:03.276Z,15.34
2022-10-11T12:01:35.894Z,15.40
2022-10-11T12:04:05.120Z,15.49
2022-10-11T12:06:32.882Z,15.56
2022-10-11T12:09:03.700Z,15.64
2022-10-11T12:11:42.092Z,15.74
2022-10-11T12:14:27.545Z,15.80
2022-10-11T12:17:19.649Z,15.83
2022-10-11T12:20:17.004Z,15.86
2022-10-11T12:22:49.743Z,15.91
2022-10-11T12:25:18.665Z,15.94
2022-10-11T12:27:47.376Z,15.98
2022-10-11T12:30:59.139Z,16.02
2022-10-11T12:33:45.949Z,16.11
2022-10-11T12:36:31.181Z,16.16
2022-10-11T12:39:19.638Z,16.22
2022-10-11T12:41:50.625Z,16.25
2022-10-11T12:44:27.300Z,16.25
2022-10-11T12:46:54.066Z,16.25
2022-10-11T12:49:24.012Z,16.26
2022-10-11T12:52:04.655Z,16.25
2022-10-11T12:54:37.380Z,16.23
2022-10-11T12:57:23.161Z,16.21
2022-10-11T12:59:49.880Z,16.21
2022-10-11T13:02:44.486Z,16.18
2022-10-11T13:05:30.835Z,16.17
2022-10-11T13:08:02.534Z,16.16
2022-10-11T13:10:33.504Z,16.16
2022-10-11T13:13:04.253Z,16.12
2022-10-11T13:15:30.966Z,16.08
2022-10-11T13:17:59.173Z,16.07
2022-10-11T13:20:28.302Z,16.06
2022-10-11T13:22:55.463Z,16.03
2022-10-11T13:25:36.946Z,16.02
2022-10-11T13:28:03.716Z,15.96
2022-10-11T13:30:34.504Z,15.93
2022-10-11T13:33:01.341Z,15.92
2022-10-11T13:35:37.834Z,15.90
2022-10-11T13:38:05.218Z,15.89
2022-10-11T13:40:32.194Z,15.88
2022-10-11T13:42:59.070Z,15.86
2022-10-11T13:45:27.493Z,15.85
2022-10-11T13:47:54.461Z,15.83
2022-10-11T13:50:31.742Z,15.81
2022-10-11T13:53:10.718Z,15.78
2022-10-11T13:55:53.767Z,15.74
2022-10-11T13:58:40.605Z,15.64
2022-10-11T14:01:20.918Z,15.55
2022-10-11T14:03:49.825Z,15.44
2022-10-11T14:06:16.457Z,15.30
2022-10-11T14:08:45.190Z,15.15
2022-10-11T14:11:12.316Z,15.03
2022-10-11T14:13:40.028Z,14.94
2022-10-11T14:16:15.877Z,14.83
2022-10-11T14:18:57.771Z,14.71
2022-10-11T14:21:45.266Z,14.58
2022-10-11T14:24:12.245Z,14.45
2022-10-11T14:26:40.402Z,14.34
2022-10-11T14:29:09.395Z,14.26
2022-10-11T14:31:41.505Z,14.18
2022-10-11T14:34:11.798Z,14.08
2022-10-11T14:36:39.601Z,13.99
2022-10-11T14:39:13.774Z,13.89
2022-10-11T14:41:40.625Z,13.79
2022-10-11T14:44:07.328Z,13.68
2022-10-11T14:46:35.892Z,13.57
2022-10-11T14:49:02.593Z,13.45
2022-10-11T14:51:31.213Z,13.33
2022-10-11T14:53:58.102Z,13.21
2022-10-11T14:56:24.877Z,13.06
2022-10-11T14:58:51.767Z,12.92
2022-10-11T15:01:18.461Z,12.79
2022-10-11T15:03:45.197Z,12.67
2022-10-11T15:06:18.607Z,12.51
2022-10-11T15:08:45.326Z,12.34
2022-10-11T15:11:13.201Z,12.18
2022-10-11T15:13:39.887Z,12.04
2022-10-11T15:16:07.495Z,11.93
2022-10-11T15:18:34.455Z,11.80
2022-10-11T15:21:01.110Z,11.68
2022-10-11T15:23:28.149Z,11.56
2022-10-11T15:25:54.770Z,11.42
2022-10-11T15:28:30.614Z,11.30
2022-10-11T15:30:57.593Z,11.17
2022-10-11T15:33:24.311Z,11.05
2022-10-11T15:35:51.487Z,10.93
2022-10-11T15:38:20.816Z,10.82
2022-10-11T15:40:47.776Z,10.70
2022-10-11T15:43:14.985Z,10.58
2022-10-11T15:45:41.841Z,10.43
2022-10-11T15:48:11.861Z,10.32
2022-10-11T15:50:38.663Z,10.19
2022-10-11T15:53:07.232Z,10.06
2022-10-11T15:55:34.661Z,9.96
2022-10-11T15:58:01.852Z,9.88
2022-10-11T16:00:28.747Z,9.78
2022-10-11T16:02:55.527Z,9.68
2022-10-11T16:05:24.740Z,9.56
2022-10-11T16:07:52.042Z,9.42
2022-10-11T16:10:18.866Z,9.29
2022-10-11T16:12:45.832Z,9.15
2022-10-11T16:15:12.605Z,9.05
2022-10-11T16:17:39.244Z,8.97
2022-10-11T16:20:06.990Z,8.89
2022-10-11T16:22:34.472Z,8.80
2022-10-11T16:25:02.271Z,8.71
2022-10-11T16:27:29.060Z,8.64
2022-10-11T16:29:55.857Z,8.57
2022-10-11T16:32:23.298Z,8.48
2022-10-11T16:34:50.139Z,8.39
2022-10-11T19:52:49.250Z,4.41
2022-10-11T19:55:16.819Z,4.81
2022-10-11T19:57:43.734Z,4.84
2022-10-11T20:00:11.858Z,4.82
2022-10-11T20:03:35.876Z,4.77
2022-10-11T20:06:05.899Z,4.71
2022-10-11T20:08:33.821Z,4.66
2022-10-11T20:11:05.049Z,4.62
2022-10-11T20:13:35.041Z,4.59
2022-10-11T20:16:13.773Z,4.58
2022-10-11T20:18:51.100Z,4.59
2022-10-11T20:21:22.527Z,4.58
2022-10-11T20:23:51.065Z,4.57
2022-10-11T20:26:23.324Z,4.54
2022-10-11T20:28:56.104Z,4.53
2022-10-11T20:31:33.140Z,4.55
2022-10-11T20:34:02.249Z,4.56
2022-10-11T20:36:30.492Z,4.57
2022-10-11T20:39:01.383Z,4.58
2022-10-11T20:41:34.148Z,4.59
2022-10-11T20:44:02.537Z,4.61
2022-10-11T20:46:31.867Z,4.62
2022-10-11T20:49:02.219Z,4.61
2022-10-11T20:51:32.211Z,4.60
2022-10-11T20:54:00.573Z,4.59
2022-10-11T20:56:30.178Z,4.59
2022-10-11T20:59:01.645Z,4.61
2022-10-11T21:01:39.698Z,4.62
2022-10-11T21:04:08.146Z,4.65
2022-10-11T21:06:37.283Z,4.67
2022-10-11T21:09:04.488Z,4.70
2022-10-11T21:11:32.395Z,4.70
2022-10-11T21:14:04.053Z,4.72
2022-10-11T21:16:31.097Z,4.73
2022-10-11T21:18:59.399Z,4.73
2022-10-11T21:21:26.932Z,4.74
2022-10-11T21:23:58.961Z,4.75
2022-10-11T21:26:26.502Z,4.73
2022-10-11T21:28:53.325Z,4.72
2022-10-11T21:31:20.691Z,4.69
2022-10-11T21:33:47.595Z,4.68
2022-10-11T21:36:16.150Z,4.69
2022-10-11T21:38:43.462Z,4.69
2022-10-11T21:41:14.956Z,4.72
2022-10-11T21:43:41.959Z,4.75
2022-10-11T21:46:14.324Z,4.77
2022-10-11T21:48:41.375Z,4.81
2022-10-11T21:51:16.915Z,4.84
2022-10-11T21:53:44.184Z,4.87
2022-10-11T21:56:11.396Z,4.90
2022-10-11T21:58:38.550Z,4.95
2022-10-11T22:01:06.192Z,5.00
2022-10-11T22:03:33.186Z,5.06
2022-10-11T22:06:03.691Z,5.11
2022-10-11T22:08:31.288Z,5.15
2022-10-11T22:10:59.677Z,5.20
2022-10-11T22:13:27.371Z,5.26
2022-10-11T22:15:56.495Z,5.33
2022-10-11T22:18:30.907Z,5.40
2022-10-11T22:21:09.731Z,5.47
2022-10-11T22:23:36.738Z,5.52
2022-10-11T22:26:08.682Z,5.57
2022-10-11T22:28:35.944Z,5.65
2022-10-11T22:31:04.960Z,5.72
2022-10-11T22:33:32.488Z,5.78
2022-10-11T22:36:00.087Z,5.86
2022-10-11T22:38:27.376Z,5.93
2022-10-11T22:40:55.447Z,5.98
2022-10-11T22:43:22.940Z,6.03
2022-10-11T22:45:50.618Z,6.06
2022-10-11T22:48:17.940Z,6.12
2022-10-11T22:50:44.779Z,6.16
2022-10-11T22:53:12.439Z,6.21
2022-10-11T22:55:39.329Z,6.27
2022-10-11T22:58:14.879Z,6.32
2022-10-11T23:01:04.749Z,6.37
2022-10-11T23:21:53.428Z,6.58
